Westgard — PDBQ — position and weather

sailwx.info

Track history (hours):
 
Tides and Currents Weather Stations Pressure Air Temp Water Temp Dewpoint Dewpoint Depression Visibility Wind Speed Wind Dir Waves Ship Positions

Westgard

Last reported at 2017-Feb-24 04:31 UTC. Time now 2017-Feb-24 06:01 UTC.
Position N 51°47' E 004°38'.

Length 89 m; draft 5.5 m.

Type: Ship. MMSI: 246457000.

Date/timePositionNaut miles runAvg speedWind from/ knotsBaromVisibWave heightAir tempDewpointWater temp
2017-Feb-24 04:31N 51°47' E 004°38'0 0.0
2017-Feb-24 02:33N 51°47' E 004°38'0 0.0
2017-Feb-24 01:19N 51°47' E 004°38'0 0.0
2017-Feb-24 00:33N 51°47' E 004°38'0 0.0
2017-Feb-23 23:33N 51°47' E 004°38'0 0.0
2017-Feb-23 22:30N 51°47' E 004°38'0 0.0
2017-Feb-23 21:30N 51°47' E 004°38'0 0.0
2017-Feb-23 20:30N 51°47' E 004°38'0 0.0
2017-Feb-23 19:24N 51°47' E 004°38'0 0.0
2017-Feb-23 18:33N 51°47' E 004°38'0 0.0
2017-Feb-23 17:33N 51°47' E 004°38'0 0.0
2017-Feb-23 16:30N 51°47' E 004°38'0 0.0
2017-Feb-23 15:33N 51°47' E 004°38'0 0.0
2017-Feb-23 14:33N 51°47' E 004°38'0 0.1
2017-Feb-23 13:33N 51°47' E 004°38'0 0.0
2017-Feb-23 12:33N 51°47' E 004°38'0 0.0
2017-Feb-23 11:33N 51°47' E 004°38'0 0.0
2017-Feb-23 10:30N 51°47' E 004°38'0 0.0
2017-Feb-23 09:33N 51°47' E 004°38'0 0.0
2017-Feb-23 08:31N 51°47' E 004°38'0 0.0
2017-Feb-23 07:29N 51°47' E 004°38'0 0.0
2017-Feb-23 06:20N 51°47' E 004°38'0 0.0
2017-Feb-23 05:29N 51°47' E 004°38'0 0.0
2017-Feb-23 04:26N 51°47' E 004°38'0 0.0
2017-Feb-23 03:32N 51°47' E 004°38'0 0.0
2017-Feb-23 02:32N 51°47' E 004°38'0 0.0
2017-Feb-23 01:29N 51°47' E 004°38'0 0.0
2017-Feb-23 00:29N 51°47' E 004°38'0 0.0
2017-Feb-22 23:31N 51°47' E 004°38'0 0.0
2017-Feb-22 22:25N 51°47' E 004°38'0 0.0
2017-Feb-22 21:25N 51°47' E 004°38'0 0.0
2017-Feb-22 19:26N 51°47' E 004°38'0 0.0
2017-Feb-22 18:14N 51°47' E 004°38'0 0.0
2017-Feb-22 16:08N 51°47' E 004°38'0 0.0
2017-Feb-22 14:32N 51°47' E 004°38'0 0.0
2017-Feb-22 12:13N 51°47' E 004°38'0 0.0
2017-Feb-22 10:25N 51°47' E 004°38'0 0.0
2017-Feb-22 07:25N 51°47' E 004°38'0 0.0
2017-Feb-22 03:19N 51°47' E 004°38'0 0.0
2017-Feb-22 02:31N 51°47' E 004°38'0 0.0
2017-Feb-22 01:10N 51°47' E 004°38'0 0.0
2017-Feb-22 00:31N 51°47' E 004°38'0 0.0
2017-Feb-21 23:16N 51°47' E 004°38'0 0.0
2017-Feb-21 22:31N 51°47' E 004°38'0 0.0
2017-Feb-21 21:31N 51°47' E 004°38'0 0.0
2017-Feb-21 20:31N 51°47' E 004°38'0 0.0
2017-Feb-21 19:25N 51°47' E 004°38'0 0.0
2017-Feb-21 18:16N 51°47' E 004°38'0 0.0
2017-Feb-21 17:31N 51°47' E 004°38'0 0.0
2017-Feb-21 16:33N 51°47' E 004°38'0 0.0
2017-Feb-21 15:27N 51°47' E 004°38'0 0.0
2017-Feb-21 14:27N 51°47' E 004°38'3 3.5
2017-Feb-21 13:33N 51°49' E 004°34'9 9.1
2017-Feb-21 12:33N 51°52' E 004°20'10 9.8
2017-Feb-21 11:33N 51°58' E 004°08'1111.3
2017-Feb-21 10:33N 52°00' E 003°50'1010.1
2017-Feb-21 09:32N 52°11' E 003°47'98 9.6
2017-Feb-20 23:24N 53°35' E 005°09'8 8.8
2017-Feb-20 22:33N 53°37' E 005°21'10 9.4
2017-Feb-20 21:31N 53°40' E 005°37'92 9.2
2017-Feb-20 11:30N 54°01' E 008°09'1111.2
2017-Feb-20 10:29N 53°59' E 008°28'1212.4
2017-Feb-20 09:33N 53°52' E 008°44'1111.0
2017-Feb-20 08:34N 53°52' E 009°03'4 4.5
2017-Feb-20 07:34N 53°54' E 009°10'8 8.2
2017-Feb-20 06:33N 54°01' E 009°18'49 7.0
2017-Feb-19 23:32N 54°32' E 010°24'1010.6
2017-Feb-19 22:33N 54°35' E 010°41'1010.2
2017-Feb-19 21:33N 54°35' E 010°58'9 9.0
2017-Feb-19 20:33N 54°35' E 011°14'10 9.5
2017-Feb-19 19:33N 54°32' E 011°29'1010.0
2017-Feb-19 18:33N 54°30' E 011°46'1010.1
2017-Feb-19 17:33N 54°29' E 012°03'10 9.8
2017-Feb-19 16:33N 54°36' E 012°15'10 9.9
2017-Feb-19 15:33N 54°42' E 012°29'44 9.7
2017-Feb-19 11:03N 55°00' E 013°38'5 9.8
2017-Feb-19 10:32N 55°02' E 013°47'10 9.7
2017-Feb-19 09:33N 55°06' E 014°02'9 9.3
2017-Feb-19 08:32N 55°12' E 014°15'9 9.5
2017-Feb-19 07:33N 55°19' E 014°26'10 9.6
2017-Feb-19 06:33N 55°26' E 014°37'9 9.4
2017-Feb-19 05:33N 55°31' E 014°52'11 9.3
2017-Feb-19 04:24N 55°36' E 015°08'8 9.4
2017-Feb-19 03:33N 55°40' E 015°20'9 9.3
2017-Feb-19 02:33N 55°45' E 015°34'10 9.7
2017-Feb-19 01:33N 55°50' E 015°49'10 9.8
2017-Feb-19 00:33N 55°55' E 016°04'1010.0
2017-Feb-18 23:33N 56°00' E 016°19'1210.3
2017-Feb-18 22:25N 56°07' E 016°37'910.2
2017-Feb-18 21:33N 56°14' E 016°47'1110.8
2017-Feb-18 20:32N 56°24' E 016°54'  
2017-Feb-16 09:30N 60°21' E 019°06'1010.2
2017-Feb-16 08:31N 60°11' E 019°06'1010.1
2017-Feb-16 07:33N 60°02' E 019°11'10 9.6
2017-Feb-16 06:33N 59°53' E 019°17'9 8.6
2017-Feb-16 05:33N 59°44' E 019°13'1111.0
2017-Feb-16 04:33N 59°39' E 018°54'1111.2
2017-Feb-16 03:33N 59°33' E 018°35'10 8.8
2017-Feb-16 02:25N 59°24' E 018°26'6 6.7
2017-Feb-16 01:33N 59°22' E 018°16'7 6.3
2017-Feb-16 00:31N 59°18' E 018°05'3 3.0
2017-Feb-15 23:34N 59°19' E 017°59'18 8.7
2017-Feb-15 21:32N 59°24' E 017°26'  
Track history (hours):
 
Tides and Currents Weather Stations Pressure Air Temp Water Temp Dewpoint Dewpoint Depression Visibility Wind Speed Wind Dir Waves Ship Positions

Westgard

Last reported at 2017-Feb-24 04:31 UTC. Time now 2017-Feb-24 06:01 UTC.
Position N 51°47' E 004°38'.

Length 89 m; draft 5.5 m.

Type: Ship. MMSI: 246457000.

Date/timePositionNaut miles runAvg speedWind from/ knotsBaromVisibWave heightAir tempDewpointWater temp
2017-Feb-24 04:31N 51°47' E 004°38'0 0.0
2017-Feb-24 02:33N 51°47' E 004°38'0 0.0
2017-Feb-24 01:19N 51°47' E 004°38'0 0.0
2017-Feb-24 00:33N 51°47' E 004°38'0 0.0
2017-Feb-23 23:33N 51°47' E 004°38'0 0.0
2017-Feb-23 22:30N 51°47' E 004°38'0 0.0
2017-Feb-23 21:30N 51°47' E 004°38'0 0.0
2017-Feb-23 20:30N 51°47' E 004°38'0 0.0
2017-Feb-23 19:24N 51°47' E 004°38'0 0.0
2017-Feb-23 18:33N 51°47' E 004°38'0 0.0
2017-Feb-23 17:33N 51°47' E 004°38'0 0.0
2017-Feb-23 16:30N 51°47' E 004°38'0 0.0
2017-Feb-23 15:33N 51°47' E 004°38'0 0.0
2017-Feb-23 14:33N 51°47' E 004°38'0 0.1
2017-Feb-23 13:33N 51°47' E 004°38'0 0.0
2017-Feb-23 12:33N 51°47' E 004°38'0 0.0
2017-Feb-23 11:33N 51°47' E 004°38'0 0.0
2017-Feb-23 10:30N 51°47' E 004°38'0 0.0
2017-Feb-23 09:33N 51°47' E 004°38'0 0.0
2017-Feb-23 08:31N 51°47' E 004°38'0 0.0
2017-Feb-23 07:29N 51°47' E 004°38'0 0.0
2017-Feb-23 06:20N 51°47' E 004°38'0 0.0
2017-Feb-23 05:29N 51°47' E 004°38'0 0.0
2017-Feb-23 04:26N 51°47' E 004°38'0 0.0
2017-Feb-23 03:32N 51°47' E 004°38'0 0.0
2017-Feb-23 02:32N 51°47' E 004°38'0 0.0
2017-Feb-23 01:29N 51°47' E 004°38'0 0.0
2017-Feb-23 00:29N 51°47' E 004°38'0 0.0
2017-Feb-22 23:31N 51°47' E 004°38'0 0.0
2017-Feb-22 22:25N 51°47' E 004°38'0 0.0
2017-Feb-22 21:25N 51°47' E 004°38'0 0.0
2017-Feb-22 19:26N 51°47' E 004°38'0 0.0
2017-Feb-22 18:14N 51°47' E 004°38'0 0.0
2017-Feb-22 16:08N 51°47' E 004°38'0 0.0
2017-Feb-22 14:32N 51°47' E 004°38'0 0.0
2017-Feb-22 12:13N 51°47' E 004°38'0 0.0
2017-Feb-22 10:25N 51°47' E 004°38'0 0.0
2017-Feb-22 07:25N 51°47' E 004°38'0 0.0
2017-Feb-22 03:19N 51°47' E 004°38'0 0.0
2017-Feb-22 02:31N 51°47' E 004°38'0 0.0
2017-Feb-22 01:10N 51°47' E 004°38'0 0.0
2017-Feb-22 00:31N 51°47' E 004°38'0 0.0
2017-Feb-21 23:16N 51°47' E 004°38'0 0.0
2017-Feb-21 22:31N 51°47' E 004°38'0 0.0
2017-Feb-21 21:31N 51°47' E 004°38'0 0.0
2017-Feb-21 20:31N 51°47' E 004°38'0 0.0
2017-Feb-21 19:25N 51°47' E 004°38'0 0.0
2017-Feb-21 18:16N 51°47' E 004°38'0 0.0
2017-Feb-21 17:31N 51°47' E 004°38'0 0.0
2017-Feb-21 16:33N 51°47' E 004°38'0 0.0
2017-Feb-21 15:27N 51°47' E 004°38'0 0.0
2017-Feb-21 14:27N 51°47' E 004°38'3 3.5
2017-Feb-21 13:33N 51°49' E 004°34'9 9.1
2017-Feb-21 12:33N 51°52' E 004°20'10 9.8
2017-Feb-21 11:33N 51°58' E 004°08'1111.3
2017-Feb-21 10:33N 52°00' E 003°50'1010.1
2017-Feb-21 09:32N 52°11' E 003°47'98 9.6
2017-Feb-20 23:24N 53°35' E 005°09'8 8.8
2017-Feb-20 22:33N 53°37' E 005°21'10 9.4
2017-Feb-20 21:31N 53°40' E 005°37'92 9.2
2017-Feb-20 11:30N 54°01' E 008°09'1111.2
2017-Feb-20 10:29N 53°59' E 008°28'1212.4
2017-Feb-20 09:33N 53°52' E 008°44'1111.0
2017-Feb-20 08:34N 53°52' E 009°03'4 4.5
2017-Feb-20 07:34N 53°54' E 009°10'8 8.2
2017-Feb-20 06:33N 54°01' E 009°18'49 7.0
2017-Feb-19 23:32N 54°32' E 010°24'1010.6
2017-Feb-19 22:33N 54°35' E 010°41'1010.2
2017-Feb-19 21:33N 54°35' E 010°58'9 9.0
2017-Feb-19 20:33N 54°35' E 011°14'10 9.5
2017-Feb-19 19:33N 54°32' E 011°29'1010.0
2017-Feb-19 18:33N 54°30' E 011°46'1010.1
2017-Feb-19 17:33N 54°29' E 012°03'10 9.8
2017-Feb-19 16:33N 54°36' E 012°15'10 9.9
2017-Feb-19 15:33N 54°42' E 012°29'44 9.7
2017-Feb-19 11:03N 55°00' E 013°38'5 9.8
2017-Feb-19 10:32N 55°02' E 013°47'10 9.7
2017-Feb-19 09:33N 55°06' E 014°02'9 9.3
2017-Feb-19 08:32N 55°12' E 014°15'9 9.5
2017-Feb-19 07:33N 55°19' E 014°26'10 9.6
2017-Feb-19 06:33N 55°26' E 014°37'9 9.4
2017-Feb-19 05:33N 55°31' E 014°52'11 9.3
2017-Feb-19 04:24N 55°36' E 015°08'8 9.4
2017-Feb-19 03:33N 55°40' E 015°20'9 9.3
2017-Feb-19 02:33N 55°45' E 015°34'10 9.7
2017-Feb-19 01:33N 55°50' E 015°49'10 9.8
2017-Feb-19 00:33N 55°55' E 016°04'1010.0
2017-Feb-18 23:33N 56°00' E 016°19'1210.3
2017-Feb-18 22:25N 56°07' E 016°37'910.2
2017-Feb-18 21:33N 56°14' E 016°47'1110.8
2017-Feb-18 20:32N 56°24' E 016°54'  
2017-Feb-16 09:30N 60°21' E 019°06'1010.2
2017-Feb-16 08:31N 60°11' E 019°06'1010.1
2017-Feb-16 07:33N 60°02' E 019°11'10 9.6
2017-Feb-16 06:33N 59°53' E 019°17'9 8.6
2017-Feb-16 05:33N 59°44' E 019°13'1111.0
2017-Feb-16 04:33N 59°39' E 018°54'1111.2
2017-Feb-16 03:33N 59°33' E 018°35'10 8.8
2017-Feb-16 02:25N 59°24' E 018°26'6 6.7
2017-Feb-16 01:33N 59°22' E 018°16'7 6.3
2017-Feb-16 00:31N 59°18' E 018°05'3 3.0
2017-Feb-15 23:34N 59°19' E 017°59'18 8.7
2017-Feb-15 21:32N 59°24' E 017°26'  

Dump ship's entire track history